^^
Saratoga-Weather Station Historical Data
Daily Summary for April 10, 2021 Units:  Both    English   Metric
Daily Weekly Monthly Yearly Custom
  High: Low: Average:
Temperature: 26.4 °F /  -3.1 °C 18.5 °F /  -7.5 °C 22.6 °F /  -5.2 °C
Dew Point: 20.1 °F /  -6.6 °C 12.9 °F /  -10.6 °C 16.7 °F /  -8.5 °C
Humidity: 87% 67% 78%
Wind Speed: 8.9mph /  14.3km/h - 2.7mph /  4.4km/h
Wind Gust: 14mph /  22.5km/h - -
Wind- - ESE
Pressure: 30 in /  1016.6 hPa 29.6 in /  1002.0 hPa -
Precipitation: 0 in /  0.0 mm    
Historical Graphs
 
 
Tabular Data for April 10, 2021
Time Temperature Dew Point Pressure Wind Wind Speed Wind Gust Humidity Rainfall Rate (Hourly) solar
00:02 23.7 °F /  -4.6 °C 20.1 °F /  -6.6 °C 29.6in /  1003.4hPa NNE 2.9mph /  4.7km/h 6mph /  9.7km/h 86% 0in /  0.0mm 0 W/m2
00:07 23.7 °F /  -4.6 °C 20.1 °F /  -6.6 °C 29.6in /  1003.4hPa ESE 2.9mph /  4.7km/h 9mph /  14.5km/h 86% 0in /  0.0mm 0 W/m2
00:12 23.7 °F /  -4.6 °C 20.1 °F /  -6.6 °C 29.6in /  1003.4hPa East 2.9mph /  4.7km/h 8mph /  12.9km/h 86% 0in /  0.0mm 0 W/m2
00:17 23.5 °F /  -4.7 °C 19.9 °F /  -6.7 °C 29.6in /  1003.4hPa East 2mph /  3.2km/h 9mph /  14.5km/h 86% 0in /  0.0mm 0 W/m2
00:22 23.5 °F /  -4.7 °C 19.9 °F /  -6.7 °C 29.6in /  1003.4hPa SE 2.9mph /  4.7km/h 6mph /  9.7km/h 86% 0in /  0.0mm 0 W/m2
00:27 23.5 °F /  -4.7 °C 19.9 °F /  -6.7 °C 29.6in /  1003.4hPa East 2mph /  3.2km/h 6mph /  9.7km/h 86% 0in /  0.0mm 0 W/m2
00:32 23.5 °F /  -4.7 °C 19.9 °F /  -6.7 °C 29.6in /  1003.4hPa NE 2.9mph /  4.7km/h 5mph /  8km/h 86% 0in /  0.0mm 0 W/m2
00:37 23.5 °F /  -4.7 °C 19.9 °F /  -6.7 °C 29.6in /  1003.4hPa NNE 2mph /  3.2km/h 6mph /  9.7km/h 86% 0in /  0.0mm 0 W/m2
00:42 23.4 °F /  -4.8 °C 19.8 °F /  -6.8 °C 29.6in /  1003.0hPa SE 4mph /  6.4km/h 6mph /  9.7km/h 86% 0in /  0.0mm 0 W/m2
00:47 23.4 °F /  -4.8 °C 19.6 °F /  -6.9 °C 29.6in /  1003.0hPa East 6mph /  9.7km/h 10mph /  16.1km/h 85% 0in /  0.0mm 0 W/m2
00:52 23.4 °F /  -4.8 °C 19.6 °F /  -6.9 °C 29.6in /  1003.0hPa ESE 4mph /  6.4km/h 9mph /  14.5km/h 85% 0in /  0.0mm 0 W/m2
00:57 23.2 °F /  -4.9 °C 19.4 °F /  -7 °C 29.6in /  1003.0hPa ESE 4mph /  6.4km/h 8mph /  12.9km/h 85% 0in /  0.0mm 0 W/m2
01:02 23.2 °F /  -4.9 °C 19.6 °F /  -6.9 °C 29.6in /  1003.0hPa ESE 8.1mph /  13km/h 10mph /  16.1km/h 86% 0in /  0.0mm 0 W/m2
01:07 23.2 °F /  -4.9 °C 19.6 °F /  -6.9 °C 29.6in /  1003.0hPa East 6mph /  9.7km/h 9mph /  14.5km/h 86% 0in /  0.0mm 0 W/m2
01:12 23.2 °F /  -4.9 °C 19.4 °F /  -7 °C 29.6in /  1003.0hPa SE 0.9mph /  1.4km/h 5mph /  8km/h 85% 0in /  0.0mm 0 W/m2
01:17 23.2 °F /  -4.9 °C 19.6 °F /  -6.9 °C 29.6in /  1003.0hPa East 4.9mph /  7.9km/h 10mph /  16.1km/h 86% 0in /  0.0mm 0 W/m2
01:22 23 °F /  -5 °C 19.4 °F /  -7 °C 29.6in /  1003.0hPa East 6.9mph /  11.1km/h 8mph /  12.9km/h 86% 0in /  0.0mm 0 W/m2
01:27 23 °F /  -5 °C 19.4 °F /  -7 °C 29.6in /  1003.0hPa NE 2.9mph /  4.7km/h 10mph /  16.1km/h 86% 0in /  0.0mm 0 W/m2
01:32 23.2 °F /  -4.9 °C 19.6 °F /  -6.9 °C 29.6in /  1003.0hPa ENE 0.9mph /  1.4km/h 5mph /  8km/h 86% 0in /  0.0mm 0 W/m2
01:37 23.2 °F /  -4.9 °C 19.6 °F /  -6.9 °C 29.6in /  1003.0hPa ESE 2.9mph /  4.7km/h 7mph /  11.3km/h 86% 0in /  0.0mm 0 W/m2
01:42 23.2 °F /  -4.9 °C 19.6 °F /  -6.9 °C 29.6in /  1003.0hPa ENE 0.9mph /  1.4km/h 6mph /  9.7km/h 86% 0in /  0.0mm 0 W/m2
01:47 23.2 °F /  -4.9 °C 19.6 °F /  -6.9 °C 29.6in /  1002.7hPa ENE 2mph /  3.2km/h 4mph /  6.4km/h 86% 0in /  0.0mm 0 W/m2
01:52 23.2 °F /  -4.9 °C 19.6 °F /  -6.9 °C 29.6in /  1002.7hPa East 2.9mph /  4.7km/h 7mph /  11.3km/h 86% 0in /  0.0mm 0 W/m2
01:57 23.2 °F /  -4.9 °C 19.6 °F /  -6.9 °C 29.6in /  1002.7hPa ENE 2mph /  3.2km/h 5mph /  8km/h 86% 0in /  0.0mm 0 W/m2
02:02 23.2 °F /  -4.9 °C 19.6 °F /  -6.9 °C 29.6in /  1002.7hPa ENE 0.9mph /  1.4km/h 4mph /  6.4km/h 86% 0in /  0.0mm 0 W/m2
02:07 23.2 °F /  -4.9 °C 19.6 °F /  -6.9 °C 29.6in /  1002.4hPa ENE 4mph /  6.4km/h 7mph /  11.3km/h 86% 0in /  0.0mm 0 W/m2
02:12 23.2 °F /  -4.9 °C 19.6 °F /  -6.9 °C 29.6in /  1002.4hPa ENE 4mph /  6.4km/h 7mph /  11.3km/h 86% 0in /  0.0mm 0 W/m2
02:17 23.2 °F /  -4.9 °C 19.6 °F /  -6.9 °C 29.6in /  1002.4hPa SE 2.9mph /  4.7km/h 4mph /  6.4km/h 86% 0in /  0.0mm 0 W/m2
02:22 23.2 °F /  -4.9 °C 19.6 °F /  -6.9 °C 29.6in /  1002.4hPa East 2mph /  3.2km/h 4mph /  6.4km/h 86% 0in /  0.0mm 0 W/m2
02:27 23 °F /  -5 °C 19.4 °F /  -7 °C 29.6in /  1002.4hPa East 4mph /  6.4km/h 6mph /  9.7km/h 86% 0in /  0.0mm 0 W/m2
02:32 22.8 °F /  -5.1 °C 19.2 °F /  -7.1 °C 29.6in /  1002.7hPa East 4mph /  6.4km/h 10mph /  16.1km/h 86% 0in /  0.0mm 0 W/m2
02:37 22.8 °F /  -5.1 °C 19.2 °F /  -7.1 °C 29.6in /  1002.4hPa NE 2mph /  3.2km/h 4mph /  6.4km/h 86% 0in /  0.0mm 0 W/m2
02:42 22.8 °F /  -5.1 °C 19.2 °F /  -7.1 °C 29.6in /  1002.4hPa ENE 2.9mph /  4.7km/h 7mph /  11.3km/h 86% 0in /  0.0mm 0 W/m2
02:47 22.6 °F /  -5.2 °C 19 °F /  -7.2 °C 29.6in /  1002.4hPa SE 4mph /  6.4km/h 8mph /  12.9km/h 86% 0in /  0.0mm 0 W/m2
02:52 22.6 °F /  -5.2 °C 19 °F /  -7.2 °C 29.6in /  1002.4hPa East 0.9mph /  1.4km/h 7mph /  11.3km/h 86% 0in /  0.0mm 0 W/m2
02:57 22.6 °F /  -5.2 °C 19 °F /  -7.2 °C 29.6in /  1002.4hPa Calm   4mph /  6.4km/h 86% 0in /  0.0mm 0 W/m2
03:02 22.6 °F /  -5.2 °C 19 °F /  -7.2 °C 29.6in /  1002.4hPa NE 2mph /  3.2km/h 3mph /  4.8km/h 86% 0in /  0.0mm 0 W/m2
03:07 22.6 °F /  -5.2 °C 19 °F /  -7.2 °C 29.6in /  1002.4hPa East 2mph /  3.2km/h 8mph /  12.9km/h 86% 0in /  0.0mm 0 W/m2
03:12 22.6 °F /  -5.2 °C 19.4 °F /  -7 °C 29.6in /  1002.4hPa ENE 2mph /  3.2km/h 6mph /  9.7km/h 87% 0in /  0.0mm 0 W/m2
03:17 22.6 °F /  -5.2 °C 19.4 °F /  -7 °C 29.6in /  1002.0hPa SE 4mph /  6.4km/h 8mph /  12.9km/h 87% 0in /  0.0mm 0 W/m2
03:23 22.6 °F /  -5.2 °C 19.4 °F /  -7 °C 29.6in /  1002.0hPa ENE 2mph /  3.2km/h 4mph /  6.4km/h 87% 0in /  0.0mm 0 W/m2
03:28 22.6 °F /  -5.2 °C 19.4 °F /  -7 °C 29.6in /  1002.0hPa ENE 0.9mph /  1.4km/h 2mph /  3.2km/h 87% 0in /  0.0mm 0 W/m2
03:33 22.8 °F /  -5.1 °C 19.6 °F /  -6.9 °C 29.6in /  1002.0hPa ENE 4mph /  6.4km/h 4mph /  6.4km/h 87% 0in /  0.0mm 0 W/m2
03:38 22.8 °F /  -5.1 °C 19.6 °F /  -6.9 °C 29.6in /  1002.0hPa NE 0.9mph /  1.4km/h 8mph /  12.9km/h 87% 0in /  0.0mm 0 W/m2
03:43 22.6 °F /  -5.2 °C 19 °F /  -7.2 °C 29.6in /  1002.0hPa ENE 4mph /  6.4km/h 8mph /  12.9km/h 86% 0in /  0.0mm 0 W/m2
03:48 22.6 °F /  -5.2 °C 19 °F /  -7.2 °C 29.6in /  1002.0hPa East 8.1mph /  13km/h 8mph /  12.9km/h 86% 0in /  0.0mm 0 W/m2
03:53 22.6 °F /  -5.2 °C 19 °F /  -7.2 °C 29.6in /  1002.0hPa SE 0.9mph /  1.4km/h 6mph /  9.7km/h 86% 0in /  0.0mm 0 W/m2
03:58 22.5 °F /  -5.3 °C 18.9 °F /  -7.3 °C 29.6in /  1002.0hPa ENE 4.9mph /  7.9km/h 5mph /  8km/h 86% 0in /  0.0mm 0 W/m2
04:03 22.5 °F /  -5.3 °C 18.9 °F /  -7.3 °C 29.6in /  1002.0hPa Calm   8mph /  12.9km/h 86% 0in /  0.0mm 0 W/m2
04:08 22.5 °F /  -5.3 °C 18.9 °F /  -7.3 °C 29.6in /  1002.0hPa NNW 4mph /  6.4km/h 4mph /  6.4km/h 86% 0in /  0.0mm 0 W/m2
04:13 22.5 °F /  -5.3 °C 18.7 °F /  -7.4 °C 29.6in /  1002.0hPa NE 2mph /  3.2km/h 6mph /  9.7km/h 85% 0in /  0.0mm 0 W/m2
04:18 22.5 °F /  -5.3 °C 18.9 °F /  -7.3 °C 29.6in /  1002.0hPa North 0.9mph /  1.4km/h 3mph /  4.8km/h 86% 0in /  0.0mm 0 W/m2
04:23 22.5 °F /  -5.3 °C 18.9 °F /  -7.3 °C 29.6in /  1002.0hPa NNW 0.9mph /  1.4km/h 4mph /  6.4km/h 86% 0in /  0.0mm 0 W/m2
04:28 22.5 °F /  -5.3 °C 18.9 °F /  -7.3 °C 29.6in /  1002.0hPa ENE 0.9mph /  1.4km/h 3mph /  4.8km/h 86% 0in /  0.0mm 0 W/m2
04:33 22.5 °F /  -5.3 °C 18.9 °F /  -7.3 °C 29.6in /  1002.4hPa NNE 0.9mph /  1.4km/h 2mph /  3.2km/h 86% 0in /  0.0mm 0 W/m2
04:38 22.3 °F /  -5.4 °C 18.7 °F /  -7.4 °C 29.6in /  1002.4hPa NNE 2mph /  3.2km/h 6mph /  9.7km/h 86% 0in /  0.0mm 0 W/m2
04:43 22.3 °F /  -5.4 °C 18.7 °F /  -7.4 °C 29.6in /  1002.4hPa ENE 2mph /  3.2km/h 9mph /  14.5km/h 86% 0in /  0.0mm 0 W/m2
04:48 22.1 °F /  -5.5 °C 18.3 °F /  -7.6 °C 29.6in /  1002.7hPa NNW 2mph /  3.2km/h 8mph /  12.9km/h 85% 0in /  0.0mm 0 W/m2
04:53 21.9 °F /  -5.6 °C 18.1 °F /  -7.7 °C 29.6in /  1002.7hPa WNW 6mph /  9.7km/h 7mph /  11.3km/h 85% 0in /  0.0mm 0 W/m2
04:58 21.9 °F /  -5.6 °C 17.8 °F /  -7.9 °C 29.6in /  1002.7hPa North 2.9mph /  4.7km/h 9mph /  14.5km/h 84% 0in /  0.0mm 0 W/m2
05:03 21.7 °F /  -5.7 °C 17.6 °F /  -8 °C 29.6in /  1002.7hPa NE 2.9mph /  4.7km/h 6mph /  9.7km/h 84% 0in /  0.0mm 0 W/m2
05:08 21.7 °F /  -5.7 °C 17.6 °F /  -8 °C 29.6in /  1002.7hPa ENE 8.1mph /  13km/h 9mph /  14.5km/h 84% 0in /  0.0mm 0 W/m2
05:13 21.6 °F /  -5.8 °C 17.4 °F /  -8.1 °C 29.6in /  1002.7hPa Calm   3mph /  4.8km/h 84% 0in /  0.0mm 0 W/m2
05:18 21.6 °F /  -5.8 °C 17.4 °F /  -8.1 °C 29.6in /  1002.7hPa East 2.9mph /  4.7km/h 5mph /  8km/h 84% 0in /  0.0mm 0 W/m2
05:23 21.4 °F /  -5.9 °C 17.1 °F /  -8.3 °C 29.6in /  1002.7hPa NNE 0.9mph /  1.4km/h 6mph /  9.7km/h 83% 0in /  0.0mm 0 W/m2
05:28 21.4 °F /  -5.9 °C 17.1 °F /  -8.3 °C 29.6in /  1002.7hPa Calm   6mph /  9.7km/h 83% 0in /  0.0mm 0 W/m2
05:33 21.4 °F /  -5.9 °C 17.1 °F /  -8.3 °C 29.6in /  1002.7hPa East 4.9mph /  7.9km/h 9mph /  14.5km/h 83% 0in /  0.0mm 0 W/m2
05:38 21.2 °F /  -6 °C 16.9 °F /  -8.4 °C 29.6in /  1002.7hPa NNE 2.9mph /  4.7km/h 3mph /  4.8km/h 83% 0in /  0.0mm 0 W/m2
05:43 21.2 °F /  -6 °C 16.9 °F /  -8.4 °C 29.6in /  1002.7hPa North 4mph /  6.4km/h 9mph /  14.5km/h 83% 0in /  0.0mm 0 W/m2
05:48 21 °F /  -6.1 °C 16.7 °F /  -8.5 °C 29.6in /  1002.7hPa ENE 0.9mph /  1.4km/h 8mph /  12.9km/h 83% 0in /  0.0mm 0 W/m2
05:53 21 °F /  -6.1 °C 16.7 °F /  -8.5 °C 29.6in /  1003.0hPa SE 0.9mph /  1.4km/h 4mph /  6.4km/h 83% 0in /  0.0mm 0 W/m2
05:58 21 °F /  -6.1 °C 16.7 °F /  -8.5 °C 29.6in /  1003.0hPa NNW 4.9mph /  7.9km/h 8mph /  12.9km/h 83% 0in /  0.0mm 0 W/m2
06:03 20.8 °F /  -6.2 °C 16.5 °F /  -8.6 °C 29.6in /  1003.0hPa North 2.9mph /  4.7km/h 6mph /  9.7km/h 83% 0in /  0.0mm 0 W/m2
06:08 20.7 °F /  -6.3 °C 16 °F /  -8.9 °C 29.6in /  1003.0hPa NNW 2.9mph /  4.7km/h 4mph /  6.4km/h 82% 0in /  0.0mm 0 W/m2
06:13 20.5 °F /  -6.4 °C 15.8 °F /  -9 °C 29.6in /  1003.0hPa East 2mph /  3.2km/h 6mph /  9.7km/h 82% 0in /  0.0mm 0 W/m2
06:18 20.5 °F /  -6.4 °C 15.8 °F /  -9 °C 29.6in /  1003.0hPa East 6.9mph /  11.1km/h 7mph /  11.3km/h 82% 0in /  0.0mm 0 W/m2
06:23 20.3 °F /  -6.5 °C 15.4 °F /  -9.2 °C 29.6in /  1003.0hPa SSE 4.9mph /  7.9km/h   81% 0in /  0.0mm 0 W/m2
06:28 20.1 °F /  -6.6 °C 15.4 °F /  -9.2 °C 29.6in /  1003.0hPa SE 2mph /  3.2km/h 7mph /  11.3km/h 82% 0in /  0.0mm 0 W/m2
06:33 19.9 °F /  -6.7 °C 15.3 °F /  -9.3 °C 29.6in /  1003.0hPa NE 2mph /  3.2km/h 9mph /  14.5km/h 82% 0in /  0.0mm 0 W/m2
06:38 19.9 °F /  -6.7 °C 15.3 °F /  -9.3 °C 29.6in /  1003.4hPa WNW 2mph /  3.2km/h 6mph /  9.7km/h 82% 0in /  0.0mm 0 W/m2
06:43 19.9 °F /  -6.7 °C 15.3 °F /  -9.3 °C 29.6in /  1003.4hPa East 2.9mph /  4.7km/h 9mph /  14.5km/h 82% 0in /  0.0mm 0 W/m2
06:48 19.9 °F /  -6.7 °C 15.3 °F /  -9.3 °C 29.6in /  1003.4hPa North 2mph /  3.2km/h 5mph /  8km/h 82% 0in /  0.0mm 0 W/m2
06:53 19.9 °F /  -6.7 °C 15.6 °F /  -9.1 °C 29.6in /  1003.4hPa NNW 4mph /  6.4km/h 9mph /  14.5km/h 83% 0in /  0.0mm 0 W/m2
06:59 19.9 °F /  -6.7 °C 15.3 °F /  -9.3 °C 29.6in /  1003.4hPa East 2.9mph /  4.7km/h 8mph /  12.9km/h 82% 0in /  0.0mm 0 W/m2
07:04 19.8 °F /  -6.8 °C 15.1 °F /  -9.4 °C 29.6in /  1003.7hPa NNE 2.9mph /  4.7km/h 7mph /  11.3km/h 82% 0in /  0.0mm 0 W/m2
07:09 19.6 °F /  -6.9 °C 14.9 °F /  -9.5 °C 29.6in /  1003.7hPa ESE 6mph /  9.7km/h 6mph /  9.7km/h 82% 0in /  0.0mm 0 W/m2
07:14 19.2 °F /  -7.1 °C 14.7 °F /  -9.6 °C 29.6in /  1003.7hPa NE 2.9mph /  4.7km/h 7mph /  11.3km/h 82% 0in /  0.0mm 0 W/m2
07:19 19 °F /  -7.2 °C 14.5 °F /  -9.7 °C 29.6in /  1003.7hPa East 0.9mph /  1.4km/h 3mph /  4.8km/h 82% 0in /  0.0mm 0 W/m2
07:24 19 °F /  -7.2 °C 14.5 °F /  -9.7 °C 29.6in /  1003.7hPa NNE 2.9mph /  4.7km/h 4mph /  6.4km/h 82% 0in /  0.0mm 0 W/m2
07:43 19 °F /  -7.2 °C 14.5 °F /  -9.7 °C 29.7in /  1004.1hPa North 2mph /  3.2km/h 7mph /  11.3km/h 82% 0in /  0.0mm 0 W/m2
07:48 18.9 °F /  -7.3 °C 14.5 °F /  -9.7 °C 29.7in /  1004.1hPa Calm   2mph /  3.2km/h 83% 0in /  0.0mm 0 W/m2
07:53 18.9 °F /  -7.3 °C 14.4 °F /  -9.8 °C 29.7in /  1004.1hPa NNW 0.9mph /  1.4km/h 4mph /  6.4km/h 82% 0in /  0.0mm 0 W/m2
07:58 18.9 °F /  -7.3 °C 14.4 °F /  -9.8 °C 29.7in /  1004.1hPa NE 4mph /  6.4km/h 14mph /  22.5km/h 82% 0in /  0.0mm 0 W/m2
08:03 18.9 °F /  -7.3 °C 14.4 °F /  -9.8 °C 29.7in /  1004.4hPa North 2mph /  3.2km/h 11mph /  17.7km/h 82% 0in /  0.0mm 0 W/m2
08:08 18.7 °F /  -7.4 °C 14.2 °F /  -9.9 °C 29.7in /  1004.4hPa NE 0.9mph /  1.4km/h 14mph /  22.5km/h 82% 0in /  0.0mm 0 W/m2
08:27 18.7 °F /  -7.4 °C 14.2 °F /  -9.9 °C 29.7in /  1004.7hPa North 4mph /  6.4km/h 5mph /  8km/h 82% 0in /  0.0mm 11 W/m2
08:32 18.7 °F /  -7.4 °C 13.8 °F /  -10.1 °C 29.7in /  1004.7hPa ENE 4.9mph /  7.9km/h 6mph /  9.7km/h 81% 0in /  0.0mm 14 W/m2
08:37 18.5 °F /  -7.5 °C 13.6 °F /  -10.2 °C 29.7in /  1004.7hPa NNW 2.9mph /  4.7km/h 4mph /  6.4km/h 81% 0in /  0.0mm 18 W/m2
08:42 18.7 °F /  -7.4 °C 13.8 °F /  -10.1 °C 29.7in /  1005.1hPa ENE 2mph /  3.2km/h 5mph /  8km/h 81% 0in /  0.0mm 21 W/m2
08:51 18.7 °F /  -7.4 °C 13.8 °F /  -10.1 °C 29.7in /  1005.1hPa NNE 2.9mph /  4.7km/h 8mph /  12.9km/h 81% 0in /  0.0mm 26 W/m2
08:56 18.7 °F /  -7.4 °C 13.8 °F /  -10.1 °C 29.7in /  1005.4hPa SSE 2mph /  3.2km/h 4mph /  6.4km/h 81% 0in /  0.0mm 28 W/m2
09:01 18.7 °F /  -7.4 °C 13.8 °F /  -10.1 °C 29.7in /  1005.4hPa East 0.9mph /  1.4km/h 5mph /  8km/h 81% 0in /  0.0mm 30 W/m2
09:06 18.7 °F /  -7.4 °C 13.5 °F /  -10.3 °C 29.7in /  1005.4hPa SW 0.9mph /  1.4km/h 5mph /  8km/h 80% 0in /  0.0mm 33 W/m2
09:11 18.7 °F /  -7.4 °C 13.5 °F /  -10.3 °C 29.7in /  1005.4hPa NW 4mph /  6.4km/h 5mph /  8km/h 80% 0in /  0.0mm 32 W/m2
09:16 18.7 °F /  -7.4 °C 13.5 °F /  -10.3 °C 29.7in /  1005.8hPa East 6.9mph /  11.1km/h 7mph /  11.3km/h 80% 0in /  0.0mm 32 W/m2
09:21 18.5 °F /  -7.5 °C 13.1 °F /  -10.5 °C 29.7in /  1005.8hPa NNW 6mph /  9.7km/h 11mph /  17.7km/h 79% 0in /  0.0mm 35 W/m2
09:26 18.5 °F /  -7.5 °C 13.1 °F /  -10.5 °C 29.7in /  1005.8hPa SW 2.9mph /  4.7km/h 8mph /  12.9km/h 79% 0in /  0.0mm 37 W/m2
09:31 18.5 °F /  -7.5 °C 13.1 °F /  -10.5 °C 29.7in /  1005.8hPa ENE 2.9mph /  4.7km/h 11mph /  17.7km/h 79% 0in /  0.0mm 40 W/m2
09:36 18.7 °F /  -7.4 °C 13.3 °F /  -10.4 °C 29.7in /  1005.8hPa WNW 0.9mph /  1.4km/h 2mph /  3.2km/h 79% 0in /  0.0mm 44 W/m2
09:41 18.7 °F /  -7.4 °C 13.3 °F /  -10.4 °C 29.7in /  1005.8hPa NNE 4mph /  6.4km/h 7mph /  11.3km/h 79% 0in /  0.0mm 47 W/m2
09:46 18.7 °F /  -7.4 °C 12.9 °F /  -10.6 °C 29.7in /  1005.8hPa NNE 4.9mph /  7.9km/h 8mph /  12.9km/h 78% 0in /  0.0mm 49 W/m2
09:52 18.7 °F /  -7.4 °C 12.9 °F /  -10.6 °C 29.7in /  1006.1hPa NE 2mph /  3.2km/h 7mph /  11.3km/h 78% 0in /  0.0mm 53 W/m2
09:57 18.7 °F /  -7.4 °C 12.9 °F /  -10.6 °C 29.7in /  1006.1hPa NNW 4mph /  6.4km/h 8mph /  12.9km/h 78% 0in /  0.0mm 60 W/m2
10:02 18.7 °F /  -7.4 °C 12.9 °F /  -10.6 °C 29.7in /  1006.1hPa ENE 2.9mph /  4.7km/h 5mph /  8km/h 78% 0in /  0.0mm 67 W/m2
10:07 18.9 °F /  -7.3 °C 13.5 °F /  -10.3 °C 29.7in /  1006.4hPa East 2mph /  3.2km/h 9mph /  14.5km/h 79% 0in /  0.0mm 72 W/m2
10:12 19 °F /  -7.2 °C 13.6 °F /  -10.2 °C 29.7in /  1006.4hPa ESE 6.9mph /  11.1km/h 8mph /  12.9km/h 79% 0in /  0.0mm 81 W/m2
10:17 19 °F /  -7.2 °C 13.6 °F /  -10.2 °C 29.7in /  1006.4hPa ENE 2mph /  3.2km/h 3mph /  4.8km/h 79% 0in /  0.0mm 88 W/m2
10:22 19.2 °F /  -7.1 °C 13.8 °F /  -10.1 °C 29.7in /  1006.4hPa NNE 0.9mph /  1.4km/h 7mph /  11.3km/h 79% 0in /  0.0mm 88 W/m2
10:27 19.2 °F /  -7.1 °C 13.8 °F /  -10.1 °C 29.7in /  1006.8hPa NW 0.9mph /  1.4km/h 8mph /  12.9km/h 79% 0in /  0.0mm 83 W/m2
10:32 19.4 °F /  -7 °C 13.6 °F /  -10.2 °C 29.7in /  1006.8hPa ENE 2mph /  3.2km/h 8mph /  12.9km/h 78% 0in /  0.0mm 81 W/m2
10:37 19.2 °F /  -7.1 °C 13.3 °F /  -10.4 °C 29.7in /  1006.8hPa ENE 2mph /  3.2km/h 10mph /  16.1km/h 77% 0in /  0.0mm 81 W/m2
10:42 19.2 °F /  -7.1 °C 13.3 °F /  -10.4 °C 29.7in /  1007.1hPa SE 6mph /  9.7km/h 11mph /  17.7km/h 77% 0in /  0.0mm 74 W/m2
10:47 19.2 °F /  -7.1 °C 13.3 °F /  -10.4 °C 29.7in /  1007.1hPa NNE 2mph /  3.2km/h 13mph /  20.9km/h 77% 0in /  0.0mm 69 W/m2
10:52 19 °F /  -7.2 °C 13.1 °F /  -10.5 °C 29.7in /  1007.1hPa NE 6mph /  9.7km/h 12mph /  19.3km/h 77% 0in /  0.0mm 70 W/m2
10:57 19.2 °F /  -7.1 °C 13.3 °F /  -10.4 °C 29.8in /  1007.5hPa East 4.9mph /  7.9km/h 13mph /  20.9km/h 77% 0in /  0.0mm 72 W/m2
11:02 19.2 °F /  -7.1 °C 13.3 °F /  -10.4 °C 29.8in /  1007.5hPa NE 6mph /  9.7km/h 6mph /  9.7km/h 77% 0in /  0.0mm 79 W/m2
11:07 19.2 °F /  -7.1 °C 13.3 °F /  -10.4 °C 29.8in /  1007.5hPa ENE 2mph /  3.2km/h 11mph /  17.7km/h 77% 0in /  0.0mm 86 W/m2
11:12 19.6 °F /  -6.9 °C 13.8 °F /  -10.1 °C 29.8in /  1007.5hPa NNW 6mph /  9.7km/h 7mph /  11.3km/h 78% 0in /  0.0mm 97 W/m2
11:17 19.6 °F /  -6.9 °C 13.6 °F /  -10.2 °C 29.8in /  1007.5hPa NE 2mph /  3.2km/h 7mph /  11.3km/h 77% 0in /  0.0mm 104 W/m2
11:22 19.6 °F /  -6.9 °C 13.3 °F /  -10.4 °C 29.8in /  1007.5hPa East 2mph /  3.2km/h 9mph /  14.5km/h 76% 0in /  0.0mm 121 W/m2
11:27 19.8 °F /  -6.8 °C 13.5 °F /  -10.3 °C 29.8in /  1007.8hPa NNE 4mph /  6.4km/h 5mph /  8km/h 76% 0in /  0.0mm 127 W/m2
11:32 19.9 °F /  -6.7 °C 13.6 °F /  -10.2 °C 29.8in /  1007.8hPa ENE 8.9mph /  14.3km/h 9mph /  14.5km/h 76% 0in /  0.0mm 158 W/m2
11:37 19.9 °F /  -6.7 °C 13.6 °F /  -10.2 °C 29.8in /  1008.1hPa WNW 0.9mph /  1.4km/h 5mph /  8km/h 76% 0in /  0.0mm 160 W/m2
11:42 20.1 °F /  -6.6 °C 13.8 °F /  -10.1 °C 29.8in /  1008.1hPa West 6mph /  9.7km/h 14mph /  22.5km/h 76% 0in /  0.0mm 137 W/m2
11:47 20.5 °F /  -6.4 °C 14.2 °F /  -9.9 °C 29.8in /  1008.1hPa ENE 4.9mph /  7.9km/h 9mph /  14.5km/h 76% 0in /  0.0mm 128 W/m2
11:52 20.7 °F /  -6.3 °C 14.4 °F /  -9.8 °C 29.8in /  1008.1hPa ENE 2mph /  3.2km/h 14mph /  22.5km/h 76% 0in /  0.0mm 107 W/m2
11:57 20.8 °F /  -6.2 °C 14.5 °F /  -9.7 °C 29.8in /  1008.1hPa ENE 4mph /  6.4km/h 4mph /  6.4km/h 76% 0in /  0.0mm 93 W/m2
12:02 20.8 °F /  -6.2 °C 14.2 °F /  -9.9 °C 29.8in /  1008.1hPa Calm   3mph /  4.8km/h 75% 0in /  0.0mm 109 W/m2
12:07 20.8 °F /  -6.2 °C 14.5 °F /  -9.7 °C 29.8in /  1008.1hPa East 2.9mph /  4.7km/h 5mph /  8km/h 76% 0in /  0.0mm 132 W/m2
12:12 21 °F /  -6.1 °C 14.7 °F /  -9.6 °C 29.8in /  1008.5hPa NNW 8.1mph /  13km/h 9mph /  14.5km/h 76% 0in /  0.0mm 125 W/m2
12:17 21 °F /  -6.1 °C 14.4 °F /  -9.8 °C 29.8in /  1008.5hPa Calm   6mph /  9.7km/h 75% 0in /  0.0mm 123 W/m2
12:22 21.2 °F /  -6 °C 14.5 °F /  -9.7 °C 29.8in /  1008.5hPa ENE 4.9mph /  7.9km/h 7mph /  11.3km/h 75% 0in /  0.0mm 127 W/m2
12:27 21.4 °F /  -5.9 °C 14.7 °F /  -9.6 °C 29.8in /  1008.5hPa NW 8.1mph /  13km/h 8mph /  12.9km/h 75% 0in /  0.0mm 135 W/m2
12:32 21.6 °F /  -5.8 °C 14.9 °F /  -9.5 °C 29.8in /  1008.5hPa West 0.9mph /  1.4km/h 4mph /  6.4km/h 75% 0in /  0.0mm 142 W/m2
12:37 21.7 °F /  -5.7 °C 15.1 °F /  -9.4 °C 29.8in /  1008.5hPa NE 6mph /  9.7km/h 11mph /  17.7km/h 75% 0in /  0.0mm 151 W/m2
12:42 21.7 °F /  -5.7 °C 14.7 °F /  -9.6 °C 29.8in /  1008.8hPa NE 4mph /  6.4km/h 6mph /  9.7km/h 74% 0in /  0.0mm 155 W/m2
12:47 21.9 °F /  -5.6 °C 14.9 °F /  -9.5 °C 29.8in /  1008.5hPa NNW 4mph /  6.4km/h 4mph /  6.4km/h 74% 0in /  0.0mm 156 W/m2
12:52 22.1 °F /  -5.5 °C 15.1 °F /  -9.4 °C 29.8in /  1008.8hPa NNW 2mph /  3.2km/h 9mph /  14.5km/h 74% 0in /  0.0mm 162 W/m2
12:57 22.5 °F /  -5.3 °C 15.8 °F /  -9 °C 29.8in /  1008.8hPa ENE 2.9mph /  4.7km/h 4mph /  6.4km/h 75% 0in /  0.0mm 165 W/m2
13:02 22.6 °F /  -5.2 °C 15.6 °F /  -9.1 °C 29.8in /  1008.8hPa ENE 4mph /  6.4km/h 12mph /  19.3km/h 74% 0in /  0.0mm 172 W/m2
13:07 22.6 °F /  -5.2 °C 15.6 °F /  -9.1 °C 29.8in /  1008.8hPa ENE 4.9mph /  7.9km/h 11mph /  17.7km/h 74% 0in /  0.0mm 186 W/m2
13:12 22.8 °F /  -5.1 °C 15.4 °F /  -9.2 °C 29.8in /  1008.8hPa East 4mph /  6.4km/h 10mph /  16.1km/h 73% 0in /  0.0mm 179 W/m2
13:17 23 °F /  -5 °C 16 °F /  -8.9 °C 29.8in /  1008.8hPa East 2.9mph /  4.7km/h 11mph /  17.7km/h 74% 0in /  0.0mm 183 W/m2
13:22 23.2 °F /  -4.9 °C 15.8 °F /  -9 °C 29.8in /  1009.1hPa NE 2.9mph /  4.7km/h 8mph /  12.9km/h 73% 0in /  0.0mm 192 W/m2
13:27 23.2 °F /  -4.9 °C 16.2 °F /  -8.8 °C 29.8in /  1009.1hPa ENE 2.9mph /  4.7km/h 6mph /  9.7km/h 74% 0in /  0.0mm 181 W/m2
13:32 23.4 °F /  -4.8 °C 16.3 °F /  -8.7 °C 29.8in /  1009.1hPa East 2.9mph /  4.7km/h 6mph /  9.7km/h 74% 0in /  0.0mm 172 W/m2
13:37 23.5 °F /  -4.7 °C 16.2 °F /  -8.8 °C 29.8in /  1009.1hPa ENE 0.9mph /  1.4km/h 9mph /  14.5km/h 73% 0in /  0.0mm 178 W/m2
13:42 23.7 °F /  -4.6 °C 16.3 °F /  -8.7 °C 29.8in /  1009.5hPa East 0.9mph /  1.4km/h 3mph /  4.8km/h 73% 0in /  0.0mm 185 W/m2
13:47 23.7 °F /  -4.6 °C 16.3 °F /  -8.7 °C 29.8in /  1009.5hPa East 6.9mph /  11.1km/h 7mph /  11.3km/h 73% 0in /  0.0mm 178 W/m2
13:52 24.1 °F /  -4.4 °C 17.1 °F /  -8.3 °C 29.8in /  1009.5hPa NNW 2.9mph /  4.7km/h 4mph /  6.4km/h 74% 0in /  0.0mm 181 W/m2
13:57 24.1 °F /  -4.4 °C 16.7 °F /  -8.5 °C 29.8in /  1009.5hPa NNE 6.9mph /  11.1km/h 7mph /  11.3km/h 73% 0in /  0.0mm 171 W/m2
14:02 24.3 °F /  -4.3 °C 16.9 °F /  -8.4 °C 29.8in /  1009.5hPa NE 2.9mph /  4.7km/h 4mph /  6.4km/h 73% 0in /  0.0mm 151 W/m2
14:07 24.3 °F /  -4.3 °C 16.5 °F /  -8.6 °C 29.8in /  1009.5hPa ESE 2.9mph /  4.7km/h 6mph /  9.7km/h 72% 0in /  0.0mm 144 W/m2
14:12 24.3 °F /  -4.3 °C 16.5 °F /  -8.6 °C 29.8in /  1009.8hPa ESE 2mph /  3.2km/h 8mph /  12.9km/h 72% 0in /  0.0mm 128 W/m2
14:17 24.4 °F /  -4.2 °C 16.7 °F /  -8.5 °C 29.8in /  1009.5hPa NE 2.9mph /  4.7km/h 8mph /  12.9km/h 72% 0in /  0.0mm 88 W/m2
14:22 24.4 °F /  -4.2 °C 16.7 °F /  -8.5 °C 29.8in /  1009.8hPa WSW 2.9mph /  4.7km/h 6mph /  9.7km/h 72% 0in /  0.0mm 111 W/m2
14:27 24.8 °F /  -4 °C 17.1 °F /  -8.3 °C 29.8in /  1009.8hPa East 2mph /  3.2km/h 6mph /  9.7km/h 72% 0in /  0.0mm 79 W/m2
14:32 25.2 °F /  -3.8 °C 17.1 °F /  -8.3 °C 29.8in /  1009.8hPa ENE 0.9mph /  1.4km/h 8mph /  12.9km/h 71% 0in /  0.0mm 95 W/m2
14:37 25.2 °F /  -3.8 °C 17.1 °F /  -8.3 °C 29.8in /  1010.2hPa NE 6.9mph /  11.1km/h 9mph /  14.5km/h 71% 0in /  0.0mm 76 W/m2
14:42 25.5 °F /  -3.6 °C 17.8 °F /  -7.9 °C 29.8in /  1010.2hPa East 0.9mph /  1.4km/h 5mph /  8km/h 72% 0in /  0.0mm 60 W/m2
14:47 25.5 °F /  -3.6 °C 17.1 °F /  -8.3 °C 29.8in /  1010.2hPa NNW 2.9mph /  4.7km/h 5mph /  8km/h 70% 0in /  0.0mm 65 W/m2
14:52 25.5 °F /  -3.6 °C 17.1 °F /  -8.3 °C 29.8in /  1010.2hPa East 2mph /  3.2km/h 8mph /  12.9km/h 70% 0in /  0.0mm 63 W/m2
14:57 25.7 °F /  -3.5 °C 17.6 °F /  -8 °C 29.8in /  1010.2hPa NE 4.9mph /  7.9km/h 6mph /  9.7km/h 71% 0in /  0.0mm 81 W/m2
15:02 26.1 °F /  -3.3 °C 18 °F /  -7.8 °C 29.8in /  1010.5hPa North 4mph /  6.4km/h 8mph /  12.9km/h 71% 0in /  0.0mm 63 W/m2
15:07 26.1 °F /  -3.3 °C 17.6 °F /  -8 °C 29.8in /  1010.5hPa ESE 0.9mph /  1.4km/h 8mph /  12.9km/h 70% 0in /  0.0mm 65 W/m2
15:12 26.1 °F /  -3.3 °C 17.2 °F /  -8.2 °C 29.9in /  1010.8hPa North 8.9mph /  14.3km/h 13mph /  20.9km/h 69% 0in /  0.0mm 84 W/m2
15:17 26.1 °F /  -3.3 °C 17.2 °F /  -8.2 °C 29.9in /  1010.8hPa ENE 2mph /  3.2km/h 6mph /  9.7km/h 69% 0in /  0.0mm 60 W/m2
15:22 26.1 °F /  -3.3 °C 17.2 °F /  -8.2 °C 29.9in /  1010.8hPa NNE 4mph /  6.4km/h 13mph /  20.9km/h 69% 0in /  0.0mm 54 W/m2
15:27 26.1 °F /  -3.3 °C 17.2 °F /  -8.2 °C 29.9in /  1010.8hPa East 2mph /  3.2km/h 4mph /  6.4km/h 69% 0in /  0.0mm 86 W/m2
15:32 26.1 °F /  -3.3 °C 17.2 °F /  -8.2 °C 29.9in /  1010.8hPa North 6mph /  9.7km/h 14mph /  22.5km/h 69% 0in /  0.0mm 91 W/m2
15:37 26.2 °F /  -3.2 °C 17.4 °F /  -8.1 °C 29.9in /  1011.2hPa ESE 6.9mph /  11.1km/h 7mph /  11.3km/h 69% 0in /  0.0mm 65 W/m2
15:42 26.4 °F /  -3.1 °C 17.6 °F /  -8 °C 29.9in /  1011.2hPa NNW 4mph /  6.4km/h 14mph /  22.5km/h 69% 0in /  0.0mm 63 W/m2
15:47 26.4 °F /  -3.1 °C 17.6 °F /  -8 °C 29.9in /  1011.2hPa NW 6mph /  9.7km/h 10mph /  16.1km/h 69% 0in /  0.0mm 67 W/m2
15:52 26.4 °F /  -3.1 °C 16.9 °F /  -8.4 °C 29.9in /  1011.2hPa NNE 2.9mph /  4.7km/h 12mph /  19.3km/h 67% 0in /  0.0mm 83 W/m2
15:57 26.2 °F /  -3.2 °C 17.1 °F /  -8.3 °C 29.9in /  1011.5hPa ESE 2mph /  3.2km/h 6mph /  9.7km/h 68% 0in /  0.0mm 79 W/m2
16:02 26.2 °F /  -3.2 °C 17.1 °F /  -8.3 °C 29.9in /  1011.5hPa SE 0.9mph /  1.4km/h 6mph /  9.7km/h 68% 0in /  0.0mm 65 W/m2
16:07 26.2 °F /  -3.2 °C 17.1 °F /  -8.3 °C 29.9in /  1011.5hPa NE 2mph /  3.2km/h 4mph /  6.4km/h 68% 0in /  0.0mm 62 W/m2
16:12 26.1 °F /  -3.3 °C 16.9 °F /  -8.4 °C 29.9in /  1011.9hPa South 2mph /  3.2km/h 7mph /  11.3km/h 68% 0in /  0.0mm 76 W/m2
16:17 26.1 °F /  -3.3 °C 16.9 °F /  -8.4 °C 29.9in /  1011.9hPa NNE 2mph /  3.2km/h 9mph /  14.5km/h 68% 0in /  0.0mm 69 W/m2
16:22 26.1 °F /  -3.3 °C 16.9 °F /  -8.4 °C 29.9in /  1011.9hPa NE 2.9mph /  4.7km/h 7mph /  11.3km/h 68% 0in /  0.0mm 56 W/m2
16:27 26.1 °F /  -3.3 °C 16.9 °F /  -8.4 °C 29.9in /  1012.2hPa Calm   4mph /  6.4km/h 68% 0in /  0.0mm 42 W/m2
16:32 26.1 °F /  -3.3 °C 16.9 °F /  -8.4 °C 29.9in /  1012.2hPa East 2mph /  3.2km/h 4mph /  6.4km/h 68% 0in /  0.0mm 35 W/m2
16:37 25.9 °F /  -3.4 °C 16.7 °F /  -8.5 °C 29.9in /  1012.2hPa East 4mph /  6.4km/h 8mph /  12.9km/h 68% 0in /  0.0mm 33 W/m2
16:42 25.9 °F /  -3.4 °C 16.7 °F /  -8.5 °C 29.9in /  1012.2hPa East 2mph /  3.2km/h 5mph /  8km/h 68% 0in /  0.0mm 33 W/m2
16:47 25.9 °F /  -3.4 °C 16.5 °F /  -8.6 °C 29.9in /  1012.5hPa ENE 0.9mph /  1.4km/h 5mph /  8km/h 67% 0in /  0.0mm 33 W/m2
16:52 25.9 °F /  -3.4 °C 16.7 °F /  -8.5 °C 29.9in /  1012.5hPa East 2mph /  3.2km/h 5mph /  8km/h 68% 0in /  0.0mm 33 W/m2
16:57 25.9 °F /  -3.4 °C 16.7 °F /  -8.5 °C 29.9in /  1012.5hPa East 2.9mph /  4.7km/h 5mph /  8km/h 68% 0in /  0.0mm 30 W/m2
17:02 26.1 °F /  -3.3 °C 17.2 °F /  -8.2 °C 29.9in /  1012.9hPa NNE 4mph /  6.4km/h 7mph /  11.3km/h 69% 0in /  0.0mm 25 W/m2
17:07 26.1 °F /  -3.3 °C 17.2 °F /  -8.2 °C 29.9in /  1012.9hPa East 2.9mph /  4.7km/h 6mph /  9.7km/h 69% 0in /  0.0mm 26 W/m2
17:12 25.9 °F /  -3.4 °C 16.7 °F /  -8.5 °C 29.9in /  1013.2hPa NW 4mph /  6.4km/h 5mph /  8km/h 68% 0in /  0.0mm 18 W/m2
17:17 25.9 °F /  -3.4 °C 17.1 °F /  -8.3 °C 29.9in /  1013.2hPa NE 0.9mph /  1.4km/h 3mph /  4.8km/h 69% 0in /  0.0mm 18 W/m2
17:22 25.9 °F /  -3.4 °C 17.1 °F /  -8.3 °C 29.9in /  1013.2hPa ENE 0.9mph /  1.4km/h 4mph /  6.4km/h 69% 0in /  0.0mm 16 W/m2
17:27 25.9 °F /  -3.4 °C 17.1 °F /  -8.3 °C 29.9in /  1013.5hPa East 0.9mph /  1.4km/h 3mph /  4.8km/h 69% 0in /  0.0mm 12 W/m2
17:32 25.7 °F /  -3.5 °C 17.2 °F /  -8.2 °C 29.9in /  1013.5hPa NNE 2mph /  3.2km/h 4mph /  6.4km/h 70% 0in /  0.0mm 11 W/m2
17:37 25.7 °F /  -3.5 °C 17.2 °F /  -8.2 °C 29.9in /  1013.5hPa ESE 2.9mph /  4.7km/h 4mph /  6.4km/h 70% 0in /  0.0mm 9 W/m2
17:42 25.7 °F /  -3.5 °C 17.2 °F /  -8.2 °C 29.9in /  1013.5hPa ENE 2mph /  3.2km/h 4mph /  6.4km/h 70% 0in /  0.0mm 5 W/m2
17:47 25.5 °F /  -3.6 °C 17.1 °F /  -8.3 °C 29.9in /  1013.9hPa Calm   3mph /  4.8km/h 70% 0in /  0.0mm 5 W/m2
17:52 25.5 °F /  -3.6 °C 17.4 °F /  -8.1 °C 29.9in /  1013.9hPa Calm   2mph /  3.2km/h 71% 0in /  0.0mm 0 W/m2
17:57 25.5 °F /  -3.6 °C 17.1 °F /  -8.3 °C 29.9in /  1013.9hPa ENE 4.9mph /  7.9km/h 8mph /  12.9km/h 70% 0in /  0.0mm 0 W/m2
18:02 25.3 °F /  -3.7 °C 16.9 °F /  -8.4 °C 29.9in /  1013.9hPa East 2mph /  3.2km/h 2mph /  3.2km/h 70% 0in /  0.0mm 0 W/m2
18:08 25.3 °F /  -3.7 °C 16.9 °F /  -8.4 °C 30in /  1014.2hPa ENE 4mph /  6.4km/h 8mph /  12.9km/h 70% 0in /  0.0mm 0 W/m2
18:13 25.3 °F /  -3.7 °C 16.9 °F /  -8.4 °C 30in /  1014.2hPa NE 2mph /  3.2km/h 5mph /  8km/h 70% 0in /  0.0mm 0 W/m2
18:18 25.3 °F /  -3.7 °C 17.2 °F /  -8.2 °C 30in /  1014.6hPa Calm   8mph /  12.9km/h 71% 0in /  0.0mm 0 W/m2
18:23 25.2 °F /  -3.8 °C 17.1 °F /  -8.3 °C 30in /  1014.6hPa East 0.9mph /  1.4km/h 3mph /  4.8km/h 71% 0in /  0.0mm 0 W/m2
18:28 25.2 °F /  -3.8 °C 17.4 °F /  -8.1 °C 30in /  1014.6hPa ENE 4mph /  6.4km/h 4mph /  6.4km/h 72% 0in /  0.0mm 0 W/m2
18:33 25.2 °F /  -3.8 °C 17.4 °F /  -8.1 °C 30in /  1014.6hPa Calm   3mph /  4.8km/h 72% 0in /  0.0mm 0 W/m2
18:38 25.2 °F /  -3.8 °C 17.4 °F /  -8.1 °C 30in /  1014.9hPa ENE 0.9mph /  1.4km/h 1mph /  1.6km/h 72% 0in /  0.0mm 0 W/m2
18:43 25.2 °F /  -3.8 °C 17.4 °F /  -8.1 °C 30in /  1014.9hPa Calm   1mph /  1.6km/h 72% 0in /  0.0mm 0 W/m2
18:48 25 °F /  -3.9 °C 17.6 °F /  -8 °C 30in /  1014.9hPa NE 2mph /  3.2km/h 2mph /  3.2km/h 73% 0in /  0.0mm 0 W/m2
18:53 25 °F /  -3.9 °C 17.6 °F /  -8 °C 30in /  1015.2hPa North 0.9mph /  1.4km/h 3mph /  4.8km/h 73% 0in /  0.0mm 0 W/m2
18:58 24.8 °F /  -4 °C 17.4 °F /  -8.1 °C 30in /  1015.2hPa Calm   2mph /  3.2km/h 73% 0in /  0.0mm 0 W/m2
19:03 24.8 °F /  -4 °C 17.4 °F /  -8.1 °C 30in /  1015.2hPa NE 0.9mph /  1.4km/h 2mph /  3.2km/h 73% 0in /  0.0mm 0 W/m2
19:08 24.8 °F /  -4 °C 17.4 °F /  -8.1 °C 30in /  1015.2hPa NE 0.9mph /  1.4km/h 2mph /  3.2km/h 73% 0in /  0.0mm 0 W/m2
19:13 24.6 °F /  -4.1 °C 17.6 °F /  -8 °C 30in /  1015.2hPa Calm   2mph /  3.2km/h 74% 0in /  0.0mm 0 W/m2
19:18 24.8 °F /  -4 °C 17.8 °F /  -7.9 °C 30in /  1015.2hPa SSE 2mph /  3.2km/h 5mph /  8km/h 74% 0in /  0.0mm 0 W/m2
19:23 24.8 °F /  -4 °C 17.8 °F /  -7.9 °C 30in /  1015.2hPa NNE 0.9mph /  1.4km/h 4mph /  6.4km/h 74% 0in /  0.0mm 0 W/m2
19:28 24.8 °F /  -4 °C 17.8 °F /  -7.9 °C 30in /  1015.6hPa Calm   1mph /  1.6km/h 74% 0in /  0.0mm 0 W/m2
19:33 24.6 °F /  -4.1 °C 17.6 °F /  -8 °C 30in /  1015.6hPa East 0.9mph /  1.4km/h 2mph /  3.2km/h 74% 0in /  0.0mm 0 W/m2
19:38 24.6 °F /  -4.1 °C 17.8 °F /  -7.9 °C 30in /  1015.6hPa Calm   2mph /  3.2km/h 75% 0in /  0.0mm 0 W/m2
19:43 24.4 °F /  -4.2 °C 17.6 °F /  -8 °C 30in /  1015.9hPa Calm   1mph /  1.6km/h 75% 0in /  0.0mm 0 W/m2
19:48 24.3 °F /  -4.3 °C 17.8 °F /  -7.9 °C 30in /  1015.9hPa Calm     76% 0in /  0.0mm 0 W/m2
19:53 23.9 °F /  -4.5 °C 17.8 °F /  -7.9 °C 30in /  1015.9hPa Calm   2mph /  3.2km/h 77% 0in /  0.0mm 0 W/m2
19:58 23.7 °F /  -4.6 °C 17.6 °F /  -8 °C 30in /  1016.3hPa Calm     77% 0in /  0.0mm 0 W/m2
20:03 23.5 °F /  -4.7 °C 17.8 °F /  -7.9 °C 30in /  1016.3hPa Calm   2mph /  3.2km/h 78% 0in /  0.0mm 0 W/m2
20:08 23.4 °F /  -4.8 °C 17.8 °F /  -7.9 °C 30in /  1016.3hPa ESE 0.9mph /  1.4km/h 1mph /  1.6km/h 79% 0in /  0.0mm 0 W/m2
20:13 23 °F /  -5 °C 17.4 °F /  -8.1 °C 30in /  1016.3hPa Calm   1mph /  1.6km/h 79% 0in /  0.0mm 0 W/m2
20:18 22.8 °F /  -5.1 °C 17.6 °F /  -8 °C 30in /  1016.3hPa Calm   1mph /  1.6km/h 80% 0in /  0.0mm 0 W/m2
20:23 22.6 °F /  -5.2 °C 17.4 °F /  -8.1 °C 30in /  1016.6hPa ESE 0.9mph /  1.4km/h 1mph /  1.6km/h 80% 0in /  0.0mm 0 W/m2
20:28 22.6 °F /  -5.2 °C 17.8 °F /  -7.9 °C 30in /  1016.6hPa Calm   1mph /  1.6km/h 81% 0in /  0.0mm 0 W/m2
20:33 22.6 °F /  -5.2 °C 17.8 °F /  -7.9 °C 30in /  1016.6hPa Calm   2mph /  3.2km/h 81% 0in /  0.0mm 0 W/m2
Juneau County Weather
Compliments of Weather Underground - 2 mb